EPSC

Szczecin-Goleniów "Solidarność" Airport

Goleniow, Poland
TAF EPSC 171130Z 1712/1812 13008KT CAVOK BECMG 1716/1718 34012KT TEMPO 1716/1724 35016G27KT SHRA BKN030CB PROB40 TEMPO 1718/1724 TSRA
Issued Valid From Valid To
Aug-17 @ 11:30 UTC
(3 hours ago)
Aug-17 @ 12:00 UTC
(3 hours ago)
Aug-18 @ 12:00 UTC
(in 21 hours)
Aug-17 @ 12:00 to Aug-17 @ 16:00
TAF EPSC 171130Z 1712/1812 13008KT CAVOK
Wind Visibility Clouds Conditions
130° at 8 knots 10,000+ meters
  • No significant clouds
Temporary Aug-17 @ 16:00 to Aug-18 @ 00:00
TEMPO 1716/1724 35016G27KT SHRA BKN030CB
Wind Clouds Conditions
350° at 16 knots
 Gusting to 27 knots
  • Broken at 3,000' AGL
  • Rain
Becoming Aug-17 @ 16:00 to Aug-18 @ 12:00
BECMG 1716/1718 34012KT
Wind Visibility Clouds Conditions
340° at 12 knots 10,000+ meters
  • No significant clouds
Temporary  (Probability 40%) Aug-17 @ 18:00 to Aug-18 @ 00:00
PROB40 TEMPO 1718/1724 TSRA
Conditions
  • Thunderstorm
  • Rain
TAF EPSC 171130Z 1712/1812 13008KT CAVOK BECMG 1716/1718 34012KT TEMPO 1716/1724 35016G27KT SHRA BKN030CB PROB40 TEMPO 1718/1724 TSRA
Issued Aug-17 @ 11:30 UTC
(3 hours ago)
Valid From Aug-17 @ 12:00 UTC
(3 hours ago)
Valid To Aug-18 @ 12:00 UTC
(in 21 hours)
Aug-17 @ 12:00 - Aug-17 @ 16:00
Wind Visibility
130° at 8 knots 10,000+ meters
Clouds
  • No significant clouds
Conditions
Temporary Aug-17 @ 16:00 - Aug-18 @ 00:00
Wind
350° at 16 knots
 Gusting to 27 knots
Clouds
  • Broken at 3,000' AGL
Conditions
  • Rain
Becoming Aug-17 @ 16:00 - Aug-18 @ 12:00
Wind Visibility
340° at 12 knots 10,000+ meters
Clouds
  • No significant clouds
Conditions
Probability 40% Temporary Aug-17 @ 18:00 - Aug-18 @ 00:00
Conditions
  • Thunderstorm
  • Rain